sensor_id;sensor_type;location;lat;lon;timestamp;pressure;altitude;pressure_sealevel;temperature;humidity
18985;BME280;9626;52.552;13.436;2022-10-16T00:00:54;100556.06;;;14.51;100.00
18985;BME280;9626;52.552;13.436;2022-10-16T00:03:19;100545.34;;;14.53;100.00
18985;BME280;9626;52.552;13.436;2022-10-16T00:05:45;100545.19;;;14.58;100.00
18985;BME280;9626;52.552;13.436;2022-10-16T00:08:11;100547.75;;;14.61;100.00
18985;BME280;9626;52.552;13.436;2022-10-16T00:10:37;100548.41;;;14.67;100.00
18985;BME280;9626;52.552;13.436;2022-10-16T00:13:03;100552.75;;;14.70;100.00
18985;BME280;9626;52.552;13.436;2022-10-16T00:15:30;100556.19;;;14.72;100.00
18985;BME280;9626;52.552;13.436;2022-10-16T00:17:57;100563.09;;;14.78;100.00
18985;BME280;9626;52.552;13.436;2022-10-16T00:20:23;100558.44;;;14.83;100.00
18985;BME280;9626;52.552;13.436;2022-10-16T00:22:49;100558.16;;;14.91;100.00
18985;BME280;9626;52.552;13.436;2022-10-16T00:25:14;100560.81;;;14.91;100.00
18985;BME280;9626;52.552;13.436;2022-10-16T00:27:40;100565.91;;;14.97;100.00
18985;BME280;9626;52.552;13.436;2022-10-16T00:30:06;100561.31;;;15.00;100.00
18985;BME280;9626;52.552;13.436;2022-10-16T00:32:33;100558.72;;;14.99;100.00
18985;BME280;9626;52.552;13.436;2022-10-16T00:34:58;100574.66;;;15.00;100.00
18985;BME280;9626;52.552;13.436;2022-10-16T00:37:24;100582.41;;;15.07;100.00
18985;BME280;9626;52.552;13.436;2022-10-16T00:39:49;100577.94;;;15.07;100.00
18985;BME280;9626;52.552;13.436;2022-10-16T00:42:39;100579.69;;;15.08;100.00
18985;BME280;9626;52.552;13.436;2022-10-16T00:45:07;100582.97;;;15.15;100.00
18985;BME280;9626;52.552;13.436;2022-10-16T00:47:36;100577.56;;;15.16;100.00
18985;BME280;9626;52.552;13.436;2022-10-16T00:50:10;100583.59;;;15.21;100.00
18985;BME280;9626;52.552;13.436;2022-10-16T00:52:41;100568.44;;;15.22;100.00
18985;BME280;9626;52.552;13.436;2022-10-16T00:55:09;100573.84;;;15.20;100.00
18985;BME280;9626;52.552;13.436;2022-10-16T00:57:34;100576.53;;;15.20;100.00
18985;BME280;9626;52.552;13.436;2022-10-16T01:00:01;100570.25;;;15.21;100.00
18985;BME280;9626;52.552;13.436;2022-10-16T01:02:27;100580.72;;;15.26;100.00
18985;BME280;9626;52.552;13.436;2022-10-16T01:04:53;100582.28;;;15.32;100.00
18985;BME280;9626;52.552;13.436;2022-10-16T01:07:46;100585.00;;;15.30;100.00
18985;BME280;9626;52.552;13.436;2022-10-16T01:10:35;100587.06;;;15.24;100.00
18985;BME280;9626;52.552;13.436;2022-10-16T01:13:09;100588.13;;;15.19;100.00
18985;BME280;9626;52.552;13.436;2022-10-16T01:18:10;100592.59;;;15.19;100.00
18985;BME280;9626;52.552;13.436;2022-10-16T01:20:46;100594.13;;;15.25;100.00
18985;BME280;9626;52.552;13.436;2022-10-16T01:28:55;100595.19;;;15.20;100.00
18985;BME280;9626;52.552;13.436;2022-10-16T01:31:26;100595.31;;;15.17;100.00
18985;BME280;9626;52.552;13.436;2022-10-16T01:34:03;100601.56;;;15.16;100.00
18985;BME280;9626;52.552;13.436;2022-10-16T01:36:55;100612.25;;;15.16;100.00
18985;BME280;9626;52.552;13.436;2022-10-16T01:39:25;100611.31;;;15.17;100.00
18985;BME280;9626;52.552;13.436;2022-10-16T01:42:00;100607.69;;;15.18;100.00
18985;BME280;9626;52.552;13.436;2022-10-16T01:44:29;100609.56;;;15.16;100.00
18985;BME280;9626;52.552;13.436;2022-10-16T01:46:57;100612.19;;;15.18;100.00
18985;BME280;9626;52.552;13.436;2022-10-16T01:49:25;100611.41;;;15.14;100.00
18985;BME280;9626;52.552;13.436;2022-10-16T01:51:55;100613.59;;;15.27;100.00
18985;BME280;9626;52.552;13.436;2022-10-16T01:54:22;100609.22;;;15.26;100.00
18985;BME280;9626;52.552;13.436;2022-10-16T01:56:50;100609.31;;;15.23;100.00
18985;BME280;9626;52.552;13.436;2022-10-16T01:59:20;100608.53;;;15.20;100.00
18985;BME280;9626;52.552;13.436;2022-10-16T02:01:52;100611.34;;;15.16;100.00
18985;BME280;9626;52.552;13.436;2022-10-16T02:04:33;100620.13;;;15.19;100.00
18985;BME280;9626;52.552;13.436;2022-10-16T02:06:59;100617.38;;;15.21;100.00
18985;BME280;9626;52.552;13.436;2022-10-16T02:09:25;100615.78;;;15.17;100.00
18985;BME280;9626;52.552;13.436;2022-10-16T02:11:54;100625.56;;;15.16;100.00
18985;BME280;9626;52.552;13.436;2022-10-16T02:14:22;100624.03;;;15.11;100.00
18985;BME280;9626;52.552;13.436;2022-10-16T02:16:50;100639.19;;;15.09;100.00
18985;BME280;9626;52.552;13.436;2022-10-16T02:19:17;100635.63;;;15.10;100.00
18985;BME280;9626;52.552;13.436;2022-10-16T02:21:51;100654.34;;;15.08;100.00
18985;BME280;9626;52.552;13.436;2022-10-16T02:24:32;100653.41;;;15.09;100.00
18985;BME280;9626;52.552;13.436;2022-10-16T02:27:19;100649.81;;;15.10;100.00
18985;BME280;9626;52.552;13.436;2022-10-16T02:29:52;100641.81;;;15.10;100.00
18985;BME280;9626;52.552;13.436;2022-10-16T02:32:21;100640.19;;;15.06;100.00
18985;BME280;9626;52.552;13.436;2022-10-16T02:34:49;100649.00;;;15.08;100.00
18985;BME280;9626;52.552;13.436;2022-10-16T02:37:34;100654.34;;;15.08;100.00
18985;BME280;9626;52.552;13.436;2022-10-16T02:40:00;100652.41;;;15.12;100.00
18985;BME280;9626;52.552;13.436;2022-10-16T02:42:38;100656.06;;;15.09;100.00
18985;BME280;9626;52.552;13.436;2022-10-16T02:45:06;100653.47;;;15.08;100.00
18985;BME280;9626;52.552;13.436;2022-10-16T02:47:32;100647.84;;;15.15;100.00
18985;BME280;9626;52.552;13.436;2022-10-16T02:49:57;100654.22;;;15.11;100.00
18985;BME280;9626;52.552;13.436;2022-10-16T02:52:23;100662.78;;;15.19;100.00
18985;BME280;9626;52.552;13.436;2022-10-16T02:54:48;100652.00;;;15.23;100.00
18985;BME280;9626;52.552;13.436;2022-10-16T02:57:14;100660.53;;;15.09;100.00
18985;BME280;9626;52.552;13.436;2022-10-16T02:59:39;100658.69;;;15.11;100.00
18985;BME280;9626;52.552;13.436;2022-10-16T03:02:05;100655.97;;;15.12;100.00
18985;BME280;9626;52.552;13.436;2022-10-16T03:04:30;100661.16;;;15.15;100.00
18985;BME280;9626;52.552;13.436;2022-10-16T03:06:56;100657.81;;;15.10;100.00
18985;BME280;9626;52.552;13.436;2022-10-16T03:09:21;100663.34;;;15.06;100.00
18985;BME280;9626;52.552;13.436;2022-10-16T03:11:47;100669.66;;;15.03;100.00
18985;BME280;9626;52.552;13.436;2022-10-16T03:14:12;100665.59;;;14.93;100.00
18985;BME280;9626;52.552;13.436;2022-10-16T03:16:38;100671.03;;;14.90;100.00
18985;BME280;9626;52.552;13.436;2022-10-16T03:19:04;100670.06;;;14.92;100.00
18985;BME280;9626;52.552;13.436;2022-10-16T03:21:29;100672.78;;;14.91;100.00
18985;BME280;9626;52.552;13.436;2022-10-16T03:23:54;100685.53;;;14.82;100.00
18985;BME280;9626;52.552;13.436;2022-10-16T03:26:20;100673.13;;;14.81;100.00
18985;BME280;9626;52.552;13.436;2022-10-16T03:28:46;100678.34;;;14.84;100.00
18985;BME280;9626;52.552;13.436;2022-10-16T03:31:11;100681.56;;;14.93;100.00
18985;BME280;9626;52.552;13.436;2022-10-16T03:33:37;100680.72;;;14.92;100.00
18985;BME280;9626;52.552;13.436;2022-10-16T03:36:02;100682.63;;;14.88;100.00
18985;BME280;9626;52.552;13.436;2022-10-16T03:38:28;100696.06;;;14.85;100.00
18985;BME280;9626;52.552;13.436;2022-10-16T03:40:53;100694.50;;;14.80;100.00
18985;BME280;9626;52.552;13.436;2022-10-16T03:43:19;100699.19;;;14.73;100.00
18985;BME280;9626;52.552;13.436;2022-10-16T03:45:45;100698.50;;;14.68;100.00
18985;BME280;9626;52.552;13.436;2022-10-16T03:48:10;100711.09;;;14.63;100.00
18985;BME280;9626;52.552;13.436;2022-10-16T03:50:36;100710.28;;;14.61;100.00
18985;BME280;9626;52.552;13.436;2022-10-16T03:53:02;100719.13;;;14.61;100.00
18985;BME280;9626;52.552;13.436;2022-10-16T03:55:28;100731.72;;;14.58;100.00
18985;BME280;9626;52.552;13.436;2022-10-16T03:57:53;100743.16;;;14.60;100.00
18985;BME280;9626;52.552;13.436;2022-10-16T04:00:19;100736.84;;;14.64;100.00
18985;BME280;9626;52.552;13.436;2022-10-16T04:02:44;100736.91;;;14.61;100.00
18985;BME280;9626;52.552;13.436;2022-10-16T04:05:10;100731.75;;;14.56;100.00
18985;BME280;9626;52.552;13.436;2022-10-16T04:07:36;100727.28;;;14.57;100.00
18985;BME280;9626;52.552;13.436;2022-10-16T04:10:01;100727.28;;;14.57;100.00
18985;BME280;9626;52.552;13.436;2022-10-16T04:12:27;100738.00;;;14.55;100.00
18985;BME280;9626;52.552;13.436;2022-10-16T04:14:52;100737.94;;;14.57;100.00
18985;BME280;9626;52.552;13.436;2022-10-16T04:17:18;100750.56;;;14.51;100.00
18985;BME280;9626;52.552;13.436;2022-10-16T04:19:44;100744.47;;;14.48;100.00
18985;BME280;9626;52.552;13.436;2022-10-16T04:22:09;100752.56;;;14.45;100.00
18985;BME280;9626;52.552;13.436;2022-10-16T04:24:35;100756.13;;;14.45;100.00
18985;BME280;9626;52.552;13.436;2022-10-16T04:27:00;100757.94;;;14.43;100.00
18985;BME280;9626;52.552;13.436;2022-10-16T04:29:26;100745.50;;;14.44;100.00
18985;BME280;9626;52.552;13.436;2022-10-16T04:31:51;100750.78;;;14.45;100.00
18985;BME280;9626;52.552;13.436;2022-10-16T04:34:17;100746.31;;;14.46;100.00
18985;BME280;9626;52.552;13.436;2022-10-16T04:36:42;100731.31;;;14.43;100.00
18985;BME280;9626;52.552;13.436;2022-10-16T04:39:08;100726.03;;;14.42;100.00
18985;BME280;9626;52.552;13.436;2022-10-16T04:41:33;100738.44;;;14.43;100.00
18985;BME280;9626;52.552;13.436;2022-10-16T04:43:59;100732.34;;;14.39;100.00
18985;BME280;9626;52.552;13.436;2022-10-16T04:46:24;100732.22;;;14.42;100.00
18985;BME280;9626;52.552;13.436;2022-10-16T04:48:50;100733.19;;;14.41;100.00
18985;BME280;9626;52.552;13.436;2022-10-16T04:51:15;100726.84;;;14.44;100.00
18985;BME280;9626;52.552;13.436;2022-10-16T04:53:41;100717.94;;;14.45;100.00
18985;BME280;9626;52.552;13.436;2022-10-16T04:56:07;100718.84;;;14.44;100.00
18985;BME280;9626;52.552;13.436;2022-10-16T04:58:32;100725.13;;;14.43;100.00
18985;BME280;9626;52.552;13.436;2022-10-16T05:00:58;100727.00;;;14.39;100.00
18985;BME280;9626;52.552;13.436;2022-10-16T05:03:23;100734.22;;;14.37;100.00
18985;BME280;9626;52.552;13.436;2022-10-16T05:05:49;100741.38;;;14.35;100.00
18985;BME280;9626;52.552;13.436;2022-10-16T05:08:15;100746.81;;;14.32;100.00
18985;BME280;9626;52.552;13.436;2022-10-16T05:10:42;100753.16;;;14.28;100.00
18985;BME280;9626;52.552;13.436;2022-10-16T05:13:08;100762.06;;;14.27;100.00
18985;BME280;9626;52.552;13.436;2022-10-16T05:15:36;100774.53;;;14.25;100.00
18985;BME280;9626;52.552;13.436;2022-10-16T05:18:02;100771.19;;;14.19;100.00
18985;BME280;9626;52.552;13.436;2022-10-16T05:20:28;100774.81;;;14.17;100.00
18985;BME280;9626;52.552;13.436;2022-10-16T05:22:53;100774.81;;;14.17;100.00
18985;BME280;9626;52.552;13.436;2022-10-16T05:25:19;100769.56;;;14.15;100.00
18985;BME280;9626;52.552;13.436;2022-10-16T05:28:02;100769.69;;;14.11;100.00
18985;BME280;9626;52.552;13.436;2022-10-16T05:30:28;100771.59;;;14.07;100.00
18985;BME280;9626;52.552;13.436;2022-10-16T05:32:53;100770.66;;;14.08;100.00
18985;BME280;9626;52.552;13.436;2022-10-16T05:35:19;100761.81;;;14.08;100.00
18985;BME280;9626;52.552;13.436;2022-10-16T05:37:45;100760.84;;;14.10;100.00
18985;BME280;9626;52.552;13.436;2022-10-16T05:40:11;100771.38;;;14.13;100.00
18985;BME280;9626;52.552;13.436;2022-10-16T05:42:38;100772.28;;;14.12;100.00
18985;BME280;9626;52.552;13.436;2022-10-16T05:45:05;100787.25;;;14.16;100.00
18985;BME280;9626;52.552;13.436;2022-10-16T05:47:31;100793.47;;;14.17;100.00
18985;BME280;9626;52.552;13.436;2022-10-16T05:49:56;100797.16;;;14.13;100.00
18985;BME280;9626;52.552;13.436;2022-10-16T05:52:22;100799.88;;;14.11;100.00
18985;BME280;9626;52.552;13.436;2022-10-16T05:54:47;100791.03;;;14.09;100.00
18985;BME280;9626;52.552;13.436;2022-10-16T05:57:13;100784.69;;;14.13;100.00
18985;BME280;9626;52.552;13.436;2022-10-16T05:59:38;100784.59;;;14.16;100.00
18985;BME280;9626;52.552;13.436;2022-10-16T06:02:04;100785.41;;;14.18;100.00
18985;BME280;9626;52.552;13.436;2022-10-16T06:04:29;100789.00;;;14.17;100.00
18985;BME280;9626;52.552;13.436;2022-10-16T06:06:58;100789.97;;;14.15;100.00
18985;BME280;9626;52.552;13.436;2022-10-16T06:09:25;100790.13;;;14.10;100.00
18985;BME280;9626;52.552;13.436;2022-10-16T06:11:51;100794.59;;;14.10;100.00
18985;BME280;9626;52.552;13.436;2022-10-16T06:14:17;100801.59;;;14.12;100.00
18985;BME280;9626;52.552;13.436;2022-10-16T06:16:42;100803.22;;;14.16;100.00
18985;BME280;9626;52.552;13.436;2022-10-16T06:19:08;100804.06;;;14.18;100.00
18985;BME280;9626;52.552;13.436;2022-10-16T06:21:34;100814.59;;;14.22;100.00
18985;BME280;9626;52.552;13.436;2022-10-16T06:24:00;100810.09;;;14.24;100.00
18985;BME280;9626;52.552;13.436;2022-10-16T06:26:28;100809.28;;;14.22;100.00
18985;BME280;9626;52.552;13.436;2022-10-16T06:28:54;100804.78;;;14.24;100.00
18985;BME280;9626;52.552;13.436;2022-10-16T06:31:20;100810.09;;;14.24;100.00
18985;BME280;9626;52.552;13.436;2022-10-16T06:33:50;100806.50;;;14.25;100.00
18985;BME280;9626;52.552;13.436;2022-10-16T06:36:17;100817.16;;;14.25;100.00
18985;BME280;9626;52.552;13.436;2022-10-16T06:38:43;100822.41;;;14.28;100.00
18985;BME280;9626;52.552;13.436;2022-10-16T06:41:13;100827.63;;;14.31;100.00
18985;BME280;9626;52.552;13.436;2022-10-16T06:43:39;100831.00;;;14.36;100.00
18985;BME280;9626;52.552;13.436;2022-10-16T06:46:07;100832.66;;;14.40;100.00
18985;BME280;9626;52.552;13.436;2022-10-16T06:48:34;100846.25;;;14.31;100.00
18985;BME280;9626;52.552;13.436;2022-10-16T06:53:29;100844.44;;;14.33;100.00
18985;BME280;9626;52.552;13.436;2022-10-16T06:55:55;100847.19;;;14.30;100.00
18985;BME280;9626;52.552;13.436;2022-10-16T06:58:21;100844.50;;;14.30;100.00
18985;BME280;9626;52.552;13.436;2022-10-16T07:00:47;100841.66;;;14.36;100.00
18985;BME280;9626;52.552;13.436;2022-10-16T07:03:13;100856.50;;;14.43;100.00
18985;BME280;9626;52.552;13.436;2022-10-16T07:05:42;100855.50;;;14.47;100.00
18985;BME280;9626;52.552;13.436;2022-10-16T07:08:09;100856.31;;;14.49;100.00
18985;BME280;9626;52.552;13.436;2022-10-16T07:10:35;100858.03;;;14.52;100.00
18985;BME280;9626;52.552;13.436;2022-10-16T07:13:01;100869.16;;;14.65;100.00
18985;BME280;9626;52.552;13.436;2022-10-16T07:15:27;100877.75;;;14.73;100.00
18985;BME280;9626;52.552;13.436;2022-10-16T07:17:53;100879.19;;;14.83;100.00
18985;BME280;9626;52.552;13.436;2022-10-16T07:20:19;100879.09;;;14.86;100.00
18985;BME280;9626;52.552;13.436;2022-10-16T07:22:44;100882.34;;;14.95;100.00
18985;BME280;9626;52.552;13.436;2022-10-16T07:25:10;100876.91;;;14.98;100.00
18985;BME280;9626;52.552;13.436;2022-10-16T07:27:36;100868.19;;;14.93;100.00
18985;BME280;9626;52.552;13.436;2022-10-16T07:30:03;100876.00;;;14.99;100.00
18985;BME280;9626;52.552;13.436;2022-10-16T07:32:29;100868.00;;;14.99;100.00
18985;BME280;9626;52.552;13.436;2022-10-16T07:34:54;100874.72;;;15.09;100.00
18985;BME280;9626;52.552;13.436;2022-10-16T07:37:21;100872.88;;;15.11;100.00
18985;BME280;9626;52.552;13.436;2022-10-16T07:39:46;100859.44;;;15.14;100.00
18985;BME280;9626;52.552;13.436;2022-10-16T07:42:12;100869.84;;;15.22;100.00
18985;BME280;9626;52.552;13.436;2022-10-16T07:44:37;100877.50;;;15.31;100.00
18985;BME280;9626;52.552;13.436;2022-10-16T07:47:03;100891.72;;;15.32;100.00
18985;BME280;9626;52.552;13.436;2022-10-16T07:49:28;100888.13;;;15.33;100.00
18985;BME280;9626;52.552;13.436;2022-10-16T07:51:54;100873.16;;;15.29;100.00
18985;BME280;9626;52.552;13.436;2022-10-16T07:54:19;100871.28;;;15.31;100.00
18985;BME280;9626;52.552;13.436;2022-10-16T07:56:45;100874.00;;;15.29;100.00
18985;BME280;9626;52.552;13.436;2022-10-16T07:59:10;100873.03;;;15.32;100.00
18985;BME280;9626;52.552;13.436;2022-10-16T08:01:36;100875.66;;;15.33;100.00
18985;BME280;9626;52.552;13.436;2022-10-16T08:04:01;100877.34;;;15.36;100.00
18985;BME280;9626;52.552;13.436;2022-10-16T08:06:27;100894.09;;;15.40;100.00
18985;BME280;9626;52.552;13.436;2022-10-16T08:08:52;100895.69;;;15.45;100.00
18985;BME280;9626;52.552;13.436;2022-10-16T08:11:18;100911.50;;;15.50;100.00
18985;BME280;9626;52.552;13.436;2022-10-16T08:13:44;100909.88;;;15.46;100.00
18985;BME280;9626;52.552;13.436;2022-10-16T08:16:10;100920.28;;;15.53;100.00
18985;BME280;9626;52.552;13.436;2022-10-16T08:18:38;100925.16;;;15.66;100.00
18985;BME280;9626;52.552;13.436;2022-10-16T08:21:05;100914.00;;;15.80;100.00
18985;BME280;9626;52.552;13.436;2022-10-16T08:23:30;100905.63;;;15.89;100.00
18985;BME280;9626;52.552;13.436;2022-10-16T08:26:02;100899.38;;;15.90;100.00
18985;BME280;9626;52.552;13.436;2022-10-16T08:28:28;100886.59;;;15.98;100.00
18985;BME280;9626;52.552;13.436;2022-10-16T08:30:54;100906.84;;;16.04;100.00
18985;BME280;9626;52.552;13.436;2022-10-16T08:33:21;100908.59;;;16.05;100.00
18985;BME280;9626;52.552;13.436;2022-10-16T08:35:51;100910.56;;;16.00;100.00
18985;BME280;9626;52.552;13.436;2022-10-16T08:38:17;100923.84;;;16.01;100.00
18985;BME280;9626;52.552;13.436;2022-10-16T08:40:43;100916.31;;;15.89;100.00
18985;BME280;9626;52.552;13.436;2022-10-16T08:43:25;100924.34;;;15.89;100.00
18985;BME280;9626;52.552;13.436;2022-10-16T08:48:35;100922.53;;;16.13;100.00
18985;BME280;9626;52.552;13.436;2022-10-16T08:51:07;100906.94;;;16.25;100.00
18985;BME280;9626;52.552;13.436;2022-10-16T08:53:43;100911.13;;;16.08;100.00
18985;BME280;9626;52.552;13.436;2022-10-16T08:56:10;100912.06;;;16.07;100.00
18985;BME280;9626;52.552;13.436;2022-10-16T08:58:35;100916.28;;;16.13;100.00
18985;BME280;9626;52.552;13.436;2022-10-16T09:01:04;100931.09;;;16.21;100.00
18985;BME280;9626;52.552;13.436;2022-10-16T09:17:24;100948.50;;;16.76;100.00
18985;BME280;9626;52.552;13.436;2022-10-16T09:20:22;100934.53;;;17.12;100.00
18985;BME280;9626;52.552;13.436;2022-10-16T09:23:00;100942.16;;;17.01;100.00
18985;BME280;9626;52.552;13.436;2022-10-16T09:25:33;100941.31;;;17.00;100.00
18985;BME280;9626;52.552;13.436;2022-10-16T09:28:00;100940.56;;;16.97;100.00
18985;BME280;9626;52.552;13.436;2022-10-16T09:30:27;100937.41;;;17.08;100.00
18985;BME280;9626;52.552;13.436;2022-10-16T09:32:54;100938.41;;;17.05;100.00
18985;BME280;9626;52.552;13.436;2022-10-16T09:35:30;100943.78;;;17.26;100.00
18985;BME280;9626;52.552;13.436;2022-10-16T09:37:56;100942.06;;;17.45;100.00
18985;BME280;9626;52.552;13.436;2022-10-16T09:40:31;100950.59;;;17.53;100.00
18985;BME280;9626;52.552;13.436;2022-10-16T09:45:27;100949.75;;;17.72;100.00
18985;BME280;9626;52.552;13.436;2022-10-16T09:47:53;100950.66;;;17.72;100.00
18985;BME280;9626;52.552;13.436;2022-10-16T09:50:26;100960.09;;;18.00;100.00
18985;BME280;9626;52.552;13.436;2022-10-16T09:53:11;100964.09;;;17.90;100.00
18985;BME280;9626;52.552;13.436;2022-10-16T09:55:48;100971.47;;;17.66;100.00
18985;BME280;9626;52.552;13.436;2022-10-16T09:58:13;100972.31;;;17.66;100.00
18985;BME280;9626;52.552;13.436;2022-10-16T10:00:41;100983.16;;;17.84;100.00
18985;BME280;9626;52.552;13.436;2022-10-16T10:03:10;100973.66;;;17.97;100.00
18985;BME280;9626;52.552;13.436;2022-10-16T10:05:39;100969.75;;;18.23;100.00
18985;BME280;9626;52.552;13.436;2022-10-16T10:08:05;100970.63;;;18.80;100.00
18985;BME280;9626;52.552;13.436;2022-10-16T10:10:41;100985.88;;;18.60;100.00
18985;BME280;9626;52.552;13.436;2022-10-16T10:13:19;100992.00;;;18.26;100.00
18985;BME280;9626;52.552;13.436;2022-10-16T10:15:45;100985.97;;;18.01;100.00
18985;BME280;9626;52.552;13.436;2022-10-16T10:18:20;100982.41;;;17.80;100.00
18985;BME280;9626;52.552;13.436;2022-10-16T10:21:01;100982.72;;;17.74;100.00
18985;BME280;9626;52.552;13.436;2022-10-16T10:23:28;100987.34;;;17.89;100.00
18985;BME280;9626;52.552;13.436;2022-10-16T10:26:17;100996.41;;;17.87;100.00
18985;BME280;9626;52.552;13.436;2022-10-16T10:31:39;100989.13;;;17.70;100.00
18985;BME280;9626;52.552;13.436;2022-10-16T10:34:26;100995.28;;;17.72;100.00
18985;BME280;9626;52.552;13.436;2022-10-16T10:37:09;101006.81;;;17.74;100.00
18985;BME280;9626;52.552;13.436;2022-10-16T10:40:07;101016.38;;;17.80;100.00
18985;BME280;9626;52.552;13.436;2022-10-16T10:51:04;101009.59;;;18.12;100.00
18985;BME280;9626;52.552;13.436;2022-10-16T10:53:50;101006.84;;;18.14;100.00
18985;BME280;9626;52.552;13.436;2022-10-16T10:56:47;101012.78;;;18.20;100.00
18985;BME280;9626;52.552;13.436;2022-10-16T11:02:18;101012.88;;;18.38;100.00
18985;BME280;9626;52.552;13.436;2022-10-16T11:07:38;101012.78;;;18.58;100.00
18985;BME280;9626;52.552;13.436;2022-10-16T11:10:13;101018.13;;;18.78;100.00
18985;BME280;9626;52.552;13.436;2022-10-16T11:12:44;101023.69;;;18.54;100.00
18985;BME280;9626;52.552;13.436;2022-10-16T11:18:05;101026.78;;;18.46;100.00
18985;BME280;9626;52.552;13.436;2022-10-16T11:20:39;101017.19;;;18.40;100.00
18985;BME280;9626;52.552;13.436;2022-10-16T11:23:14;101020.31;;;18.31;100.00
18985;BME280;9626;52.552;13.436;2022-10-16T11:25:43;101011.47;;;18.29;100.00
18985;BME280;9626;52.552;13.436;2022-10-16T11:28:20;101013.88;;;18.16;100.00
18985;BME280;9626;52.552;13.436;2022-10-16T11:31:10;101013.44;;;18.26;100.00
18985;BME280;9626;52.552;13.436;2022-10-16T11:34:12;101005.41;;;18.26;100.00
18985;BME280;9626;52.552;13.436;2022-10-16T11:39:24;101016.16;;;18.43;100.00
18985;BME280;9626;52.552;13.436;2022-10-16T11:42:08;101007.84;;;18.49;100.00
18985;BME280;9626;52.552;13.436;2022-10-16T11:47:36;101008.72;;;18.50;100.00
18985;BME280;9626;52.552;13.436;2022-10-16T11:53:26;101025.94;;;19.01;100.00
18985;BME280;9626;52.552;13.436;2022-10-16T11:55:55;101024.84;;;18.86;100.00
18985;BME280;9626;52.552;13.436;2022-10-16T12:03:54;101027.78;;;18.24;100.00
18985;BME280;9626;52.552;13.436;2022-10-16T12:06:47;101029.06;;;18.35;100.00
18985;BME280;9626;52.552;13.436;2022-10-16T12:09:30;101026.25;;;18.38;100.00
18985;BME280;9626;52.552;13.436;2022-10-16T12:11:56;101038.63;;;18.40;100.00
18985;BME280;9626;52.552;13.436;2022-10-16T12:14:43;101048.50;;;18.40;100.00
18985;BME280;9626;52.552;13.436;2022-10-16T12:20:00;101054.19;;;19.08;94.31
18985;BME280;9626;52.552;13.436;2022-10-16T12:22:30;101055.59;;;18.98;93.28
18985;BME280;9626;52.552;13.436;2022-10-16T12:24:57;101049.41;;;19.33;88.15
18985;BME280;9626;52.552;13.436;2022-10-16T12:27:27;101058.72;;;19.25;86.97
18985;BME280;9626;52.552;13.436;2022-10-16T12:29:59;101059.66;;;19.24;85.22
18985;BME280;9626;52.552;13.436;2022-10-16T12:32:29;101054.22;;;19.26;84.50
18985;BME280;9626;52.552;13.436;2022-10-16T12:34:57;101063.13;;;19.44;81.64
18985;BME280;9626;52.552;13.436;2022-10-16T12:37:26;101059.69;;;19.42;78.21
18985;BME280;9626;52.552;13.436;2022-10-16T12:39:54;101061.00;;;19.33;76.41
18985;BME280;9626;52.552;13.436;2022-10-16T12:44:53;101066.31;;;19.35;75.40
18985;BME280;9626;52.552;13.436;2022-10-16T12:49:57;101068.03;;;19.36;73.82
18985;BME280;9626;52.552;13.436;2022-10-16T12:54:50;101074.22;;;19.38;75.08
18985;BME280;9626;52.552;13.436;2022-10-16T13:05:46;101077.53;;;19.43;71.43
18985;BME280;9626;52.552;13.436;2022-10-16T13:28:41;101102.81;;;19.39;74.38
18985;BME280;9626;52.552;13.436;2022-10-16T13:31:15;101115.25;;;19.40;73.84
18985;BME280;9626;52.552;13.436;2022-10-16T13:33:46;101116.34;;;19.36;73.10
18985;BME280;9626;52.552;13.436;2022-10-16T13:36:33;101115.25;;;19.40;73.75
18985;BME280;9626;52.552;13.436;2022-10-16T13:39:14;101106.19;;;19.42;73.40
18985;BME280;9626;52.552;13.436;2022-10-16T13:41:42;101107.06;;;19.43;79.36
18985;BME280;9626;52.552;13.436;2022-10-16T13:44:15;101105.66;;;19.53;72.27
18985;BME280;9626;52.552;13.436;2022-10-16T13:46:43;101103.69;;;19.74;71.10
18985;BME280;9626;52.552;13.436;2022-10-16T13:49:15;101112.25;;;19.83;69.76
18985;BME280;9626;52.552;13.436;2022-10-16T13:51:41;101111.66;;;19.76;77.09
18985;BME280;9626;52.552;13.436;2022-10-16T13:54:10;101106.97;;;19.81;76.43
18985;BME280;9626;52.552;13.436;2022-10-16T13:56:38;101106.19;;;19.60;74.61
18985;BME280;9626;52.552;13.436;2022-10-16T13:59:06;101102.28;;;19.85;73.65
18985;BME280;9626;52.552;13.436;2022-10-16T14:01:41;101112.78;;;19.72;71.51
18985;BME280;9626;52.552;13.436;2022-10-16T14:04:10;101109.53;;;19.65;71.70
18985;BME280;9626;52.552;13.436;2022-10-16T14:06:41;101125.78;;;19.81;70.00
18985;BME280;9626;52.552;13.436;2022-10-16T14:09:12;101118.25;;;19.88;68.03
18985;BME280;9626;52.552;13.436;2022-10-16T14:11:53;101125.28;;;19.90;66.42
18985;BME280;9626;52.552;13.436;2022-10-16T14:14:20;101134.44;;;19.86;66.63
18985;BME280;9626;52.552;13.436;2022-10-16T14:16:46;101126.75;;;19.79;67.10
18985;BME280;9626;52.552;13.436;2022-10-16T14:21:43;101130.69;;;19.71;66.79
18985;BME280;9626;52.552;13.436;2022-10-16T14:24:41;101136.94;;;19.72;67.28
18985;BME280;9626;52.552;13.436;2022-10-16T14:27:30;101134.47;;;19.67;67.71
18985;BME280;9626;52.552;13.436;2022-10-16T14:30:10;101136.47;;;19.64;68.55
18985;BME280;9626;52.552;13.436;2022-10-16T14:32:41;101132.00;;;19.82;68.55
18985;BME280;9626;52.552;13.436;2022-10-16T14:35:23;101135.19;;;19.71;69.24
18985;BME280;9626;52.552;13.436;2022-10-16T14:37:54;101135.19;;;19.53;69.83